sensor_id;sensor_type;location;lat;lon;timestamp;P1;durP1;ratioP1;P2;durP2;ratioP2
74541;SDS011;63015;45.378;20.360;2023-12-04T00:01:45;18.13;;;7.80;;
74541;SDS011;63015;45.378;20.360;2023-12-04T00:03:46;16.30;;;6.97;;
74541;SDS011;63015;45.378;20.360;2023-12-04T00:05:47;20.30;;;7.50;;
74541;SDS011;63015;45.378;20.360;2023-12-04T00:07:48;17.65;;;7.75;;
74541;SDS011;63015;45.378;20.360;2023-12-04T00:09:48;15.10;;;6.93;;
74541;SDS011;63015;45.378;20.360;2023-12-04T00:11:49;17.23;;;6.95;;
74541;SDS011;63015;45.378;20.360;2023-12-04T00:13:49;17.05;;;7.28;;
74541;SDS011;63015;45.378;20.360;2023-12-04T00:15:50;14.38;;;6.07;;
74541;SDS011;63015;45.378;20.360;2023-12-04T00:17:51;16.83;;;6.88;;
74541;SDS011;63015;45.378;20.360;2023-12-04T00:19:51;16.60;;;6.38;;
74541;SDS011;63015;45.378;20.360;2023-12-04T00:21:52;14.07;;;7.18;;
74541;SDS011;63015;45.378;20.360;2023-12-04T00:23:53;12.32;;;5.47;;
74541;SDS011;63015;45.378;20.360;2023-12-04T00:25:54;15.27;;;6.47;;
74541;SDS011;63015;45.378;20.360;2023-12-04T00:27:55;16.17;;;6.90;;
74541;SDS011;63015;45.378;20.360;2023-12-04T00:29:55;15.50;;;6.35;;
74541;SDS011;63015;45.378;20.360;2023-12-04T00:31:56;14.18;;;5.88;;
74541;SDS011;63015;45.378;20.360;2023-12-04T00:33:57;13.50;;;5.97;;
74541;SDS011;63015;45.378;20.360;2023-12-04T00:35:57;14.05;;;6.05;;
74541;SDS011;63015;45.378;20.360;2023-12-04T00:37:58;17.27;;;6.93;;
74541;SDS011;63015;45.378;20.360;2023-12-04T00:39:59;18.70;;;7.10;;
74541;SDS011;63015;45.378;20.360;2023-12-04T00:41:59;15.95;;;6.40;;
74541;SDS011;63015;45.378;20.360;2023-12-04T00:44:00;14.40;;;6.10;;
74541;SDS011;63015;45.378;20.360;2023-12-04T00:46:00;18.05;;;6.53;;
74541;SDS011;63015;45.378;20.360;2023-12-04T00:48:02;17.95;;;6.70;;
74541;SDS011;63015;45.378;20.360;2023-12-04T00:50:03;16.88;;;5.97;;
74541;SDS011;63015;45.378;20.360;2023-12-04T00:52:04;17.48;;;6.57;;
74541;SDS011;63015;45.378;20.360;2023-12-04T00:54:05;19.75;;;7.35;;
74541;SDS011;63015;45.378;20.360;2023-12-04T00:56:05;20.45;;;8.23;;
74541;SDS011;63015;45.378;20.360;2023-12-04T00:58:06;16.05;;;7.30;;
74541;SDS011;63015;45.378;20.360;2023-12-04T01:00:07;14.52;;;6.75;;
74541;SDS011;63015;45.378;20.360;2023-12-04T01:02:08;15.60;;;7.35;;
74541;SDS011;63015;45.378;20.360;2023-12-04T01:04:09;17.85;;;7.32;;
74541;SDS011;63015;45.378;20.360;2023-12-04T01:06:19;17.40;;;8.07;;
74541;SDS011;63015;45.378;20.360;2023-12-04T01:08:21;16.05;;;6.70;;
74541;SDS011;63015;45.378;20.360;2023-12-04T01:10:22;19.45;;;7.43;;
74541;SDS011;63015;45.378;20.360;2023-12-04T01:12:23;16.08;;;6.47;;
74541;SDS011;63015;45.378;20.360;2023-12-04T01:14:23;15.48;;;6.60;;
74541;SDS011;63015;45.378;20.360;2023-12-04T01:16:24;16.65;;;7.00;;
74541;SDS011;63015;45.378;20.360;2023-12-04T01:18:24;17.90;;;7.88;;
74541;SDS011;63015;45.378;20.360;2023-12-04T01:20:25;16.58;;;7.25;;
74541;SDS011;63015;45.378;20.360;2023-12-04T01:22:27;15.80;;;6.65;;
74541;SDS011;63015;45.378;20.360;2023-12-04T01:24:27;15.75;;;6.97;;
74541;SDS011;63015;45.378;20.360;2023-12-04T01:26:28;18.05;;;6.80;;
74541;SDS011;63015;45.378;20.360;2023-12-04T01:28:29;18.67;;;7.47;;
74541;SDS011;63015;45.378;20.360;2023-12-04T01:30:30;19.60;;;8.00;;
74541;SDS011;63015;45.378;20.360;2023-12-04T01:32:31;20.15;;;7.68;;
74541;SDS011;63015;45.378;20.360;2023-12-04T01:34:31;19.55;;;7.95;;
74541;SDS011;63015;45.378;20.360;2023-12-04T01:36:32;19.20;;;7.47;;
74541;SDS011;63015;45.378;20.360;2023-12-04T01:38:32;19.85;;;8.18;;
74541;SDS011;63015;45.378;20.360;2023-12-04T01:40:33;20.17;;;8.48;;
74541;SDS011;63015;45.378;20.360;2023-12-04T01:42:34;24.00;;;9.77;;
74541;SDS011;63015;45.378;20.360;2023-12-04T01:44:34;33.00;;;13.50;;
74541;SDS011;63015;45.378;20.360;2023-12-04T01:46:36;38.42;;;14.40;;
74541;SDS011;63015;45.378;20.360;2023-12-04T01:48:37;31.83;;;12.57;;
74541;SDS011;63015;45.378;20.360;2023-12-04T01:50:38;26.90;;;11.13;;
74541;SDS011;63015;45.378;20.360;2023-12-04T01:52:39;23.55;;;10.05;;
74541;SDS011;63015;45.378;20.360;2023-12-04T01:54:40;26.05;;;9.73;;
74541;SDS011;63015;45.378;20.360;2023-12-04T01:56:41;23.42;;;8.70;;
74541;SDS011;63015;45.378;20.360;2023-12-04T01:58:42;21.77;;;9.38;;
74541;SDS011;63015;45.378;20.360;2023-12-04T02:00:44;23.75;;;9.60;;
74541;SDS011;63015;45.378;20.360;2023-12-04T02:02:44;27.13;;;11.65;;
74541;SDS011;63015;45.378;20.360;2023-12-04T02:04:46;26.00;;;11.40;;
74541;SDS011;63015;45.378;20.360;2023-12-04T02:06:47;22.98;;;9.60;;
74541;SDS011;63015;45.378;20.360;2023-12-04T02:08:47;23.02;;;9.93;;
74541;SDS011;63015;45.378;20.360;2023-12-04T02:10:48;22.52;;;10.10;;
74541;SDS011;63015;45.378;20.360;2023-12-04T02:12:49;23.52;;;11.73;;
74541;SDS011;63015;45.378;20.360;2023-12-04T02:14:51;21.55;;;10.07;;
74541;SDS011;63015;45.378;20.360;2023-12-04T02:16:52;24.13;;;10.05;;
74541;SDS011;63015;45.378;20.360;2023-12-04T02:18:55;23.52;;;9.00;;
74541;SDS011;63015;45.378;20.360;2023-12-04T02:20:55;20.33;;;8.57;;
74541;SDS011;63015;45.378;20.360;2023-12-04T02:22:56;21.30;;;8.65;;
74541;SDS011;63015;45.378;20.360;2023-12-04T02:24:57;21.17;;;8.70;;
74541;SDS011;63015;45.378;20.360;2023-12-04T02:27:04;18.95;;;8.32;;
74541;SDS011;63015;45.378;20.360;2023-12-04T02:29:14;15.50;;;7.65;;
74541;SDS011;63015;45.378;20.360;2023-12-04T02:31:20;20.55;;;8.85;;
74541;SDS011;63015;45.378;20.360;2023-12-04T02:33:23;21.15;;;9.10;;
74541;SDS011;63015;45.378;20.360;2023-12-04T02:35:26;22.92;;;9.13;;
74541;SDS011;63015;45.378;20.360;2023-12-04T02:37:29;32.25;;;11.95;;
74541;SDS011;63015;45.378;20.360;2023-12-04T02:39:31;33.85;;;13.27;;
74541;SDS011;63015;45.378;20.360;2023-12-04T02:41:31;45.88;;;18.20;;
74541;SDS011;63015;45.378;20.360;2023-12-04T02:43:32;43.90;;;14.90;;
74541;SDS011;63015;45.378;20.360;2023-12-04T02:45:33;42.90;;;14.25;;
74541;SDS011;63015;45.378;20.360;2023-12-04T02:47:34;42.30;;;14.10;;
74541;SDS011;63015;45.378;20.360;2023-12-04T02:49:35;49.20;;;16.98;;
74541;SDS011;63015;45.378;20.360;2023-12-04T02:51:35;60.80;;;21.77;;
74541;SDS011;63015;45.378;20.360;2023-12-04T02:53:36;51.85;;;17.90;;
74541;SDS011;63015;45.378;20.360;2023-12-04T02:55:36;46.88;;;14.18;;
74541;SDS011;63015;45.378;20.360;2023-12-04T02:57:37;46.55;;;15.63;;
74541;SDS011;63015;45.378;20.360;2023-12-04T02:59:38;82.00;;;26.35;;
74541;SDS011;63015;45.378;20.360;2023-12-04T03:01:38;71.50;;;22.27;;
74541;SDS011;63015;45.378;20.360;2023-12-04T03:03:39;87.82;;;26.35;;
74541;SDS011;63015;45.378;20.360;2023-12-04T03:05:39;67.68;;;21.98;;
74541;SDS011;63015;45.378;20.360;2023-12-04T03:07:40;53.72;;;17.77;;
74541;SDS011;63015;45.378;20.360;2023-12-04T03:09:40;35.90;;;13.00;;
74541;SDS011;63015;45.378;20.360;2023-12-04T03:11:41;30.38;;;12.10;;
74541;SDS011;63015;45.378;20.360;2023-12-04T03:13:42;38.22;;;15.57;;
74541;SDS011;63015;45.378;20.360;2023-12-04T03:15:42;44.35;;;17.15;;
74541;SDS011;63015;45.378;20.360;2023-12-04T03:17:43;50.55;;;18.50;;
74541;SDS011;63015;45.378;20.360;2023-12-04T03:19:44;43.97;;;16.00;;
74541;SDS011;63015;45.378;20.360;2023-12-04T03:21:44;44.75;;;17.20;;
74541;SDS011;63015;45.378;20.360;2023-12-04T03:23:45;47.20;;;18.27;;
74541;SDS011;63015;45.378;20.360;2023-12-04T03:25:45;45.00;;;18.95;;
74541;SDS011;63015;45.378;20.360;2023-12-04T03:27:46;40.45;;;17.33;;
74541;SDS011;63015;45.378;20.360;2023-12-04T03:29:46;36.17;;;16.20;;
74541;SDS011;63015;45.378;20.360;2023-12-04T03:31:47;35.30;;;14.95;;
74541;SDS011;63015;45.378;20.360;2023-12-04T03:33:47;32.40;;;14.57;;
74541;SDS011;63015;45.378;20.360;2023-12-04T03:35:48;29.00;;;13.80;;
74541;SDS011;63015;45.378;20.360;2023-12-04T03:37:48;29.15;;;13.77;;
74541;SDS011;63015;45.378;20.360;2023-12-04T03:39:52;28.52;;;12.23;;
74541;SDS011;63015;45.378;20.360;2023-12-04T03:41:53;26.17;;;10.52;;
74541;SDS011;63015;45.378;20.360;2023-12-04T03:43:53;25.65;;;11.15;;
74541;SDS011;63015;45.378;20.360;2023-12-04T03:45:54;24.27;;;9.63;;
74541;SDS011;63015;45.378;20.360;2023-12-04T03:47:55;20.55;;;8.93;;
74541;SDS011;63015;45.378;20.360;2023-12-04T03:49:55;23.50;;;9.75;;
74541;SDS011;63015;45.378;20.360;2023-12-04T03:51:56;23.35;;;9.63;;
74541;SDS011;63015;45.378;20.360;2023-12-04T03:53:57;23.27;;;9.77;;
74541;SDS011;63015;45.378;20.360;2023-12-04T03:55:58;21.95;;;9.13;;
74541;SDS011;63015;45.378;20.360;2023-12-04T03:57:58;24.73;;;9.75;;
74541;SDS011;63015;45.378;20.360;2023-12-04T03:59:59;23.00;;;9.10;;
74541;SDS011;63015;45.378;20.360;2023-12-04T04:02:00;28.33;;;10.63;;
74541;SDS011;63015;45.378;20.360;2023-12-04T04:04:00;21.52;;;9.98;;
74541;SDS011;63015;45.378;20.360;2023-12-04T04:06:01;21.73;;;9.93;;
74541;SDS011;63015;45.378;20.360;2023-12-04T04:08:02;26.17;;;11.25;;
74541;SDS011;63015;45.378;20.360;2023-12-04T04:10:02;21.50;;;10.02;;
74541;SDS011;63015;45.378;20.360;2023-12-04T04:12:07;21.52;;;9.90;;
74541;SDS011;63015;45.378;20.360;2023-12-04T04:14:07;24.83;;;10.52;;
74541;SDS011;63015;45.378;20.360;2023-12-04T04:16:13;23.35;;;10.80;;
74541;SDS011;63015;45.378;20.360;2023-12-04T04:18:16;22.70;;;9.10;;
74541;SDS011;63015;45.378;20.360;2023-12-04T04:20:17;21.70;;;9.38;;
74541;SDS011;63015;45.378;20.360;2023-12-04T04:22:18;23.50;;;9.65;;
74541;SDS011;63015;45.378;20.360;2023-12-04T04:24:19;25.33;;;11.00;;
74541;SDS011;63015;45.378;20.360;2023-12-04T04:26:20;23.80;;;10.65;;
74541;SDS011;63015;45.378;20.360;2023-12-04T04:28:20;26.40;;;10.65;;
74541;SDS011;63015;45.378;20.360;2023-12-04T04:30:21;25.50;;;10.73;;
74541;SDS011;63015;45.378;20.360;2023-12-04T04:32:21;26.23;;;10.60;;
74541;SDS011;63015;45.378;20.360;2023-12-04T04:34:22;26.05;;;10.48;;
74541;SDS011;63015;45.378;20.360;2023-12-04T04:36:22;27.15;;;11.30;;
74541;SDS011;63015;45.378;20.360;2023-12-04T04:38:23;30.45;;;11.27;;
74541;SDS011;63015;45.378;20.360;2023-12-04T04:40:24;25.73;;;10.80;;
74541;SDS011;63015;45.378;20.360;2023-12-04T04:42:24;27.85;;;11.07;;
74541;SDS011;63015;45.378;20.360;2023-12-04T04:44:25;34.70;;;12.10;;
74541;SDS011;63015;45.378;20.360;2023-12-04T04:46:25;26.15;;;11.27;;
74541;SDS011;63015;45.378;20.360;2023-12-04T04:48:27;26.55;;;11.82;;
74541;SDS011;63015;45.378;20.360;2023-12-04T04:50:28;26.48;;;10.90;;
74541;SDS011;63015;45.378;20.360;2023-12-04T04:52:29;22.90;;;10.23;;
74541;SDS011;63015;45.378;20.360;2023-12-04T04:54:33;25.98;;;11.45;;
74541;SDS011;63015;45.378;20.360;2023-12-04T04:58:34;39.13;;;14.88;;
74541;SDS011;63015;45.378;20.360;2023-12-04T05:00:34;29.67;;;12.30;;
74541;SDS011;63015;45.378;20.360;2023-12-04T05:02:35;30.83;;;13.25;;
74541;SDS011;63015;45.378;20.360;2023-12-04T05:04:36;38.58;;;14.07;;
74541;SDS011;63015;45.378;20.360;2023-12-04T05:06:36;29.98;;;12.85;;
74541;SDS011;63015;45.378;20.360;2023-12-04T05:08:37;41.35;;;15.80;;
74541;SDS011;63015;45.378;20.360;2023-12-04T05:10:38;30.42;;;12.27;;
74541;SDS011;63015;45.378;20.360;2023-12-04T05:12:39;29.80;;;12.10;;
74541;SDS011;63015;45.378;20.360;2023-12-04T05:14:40;29.63;;;12.68;;
74541;SDS011;63015;45.378;20.360;2023-12-04T05:16:40;38.85;;;15.95;;
74541;SDS011;63015;45.378;20.360;2023-12-04T05:18:41;37.55;;;16.10;;
74541;SDS011;63015;45.378;20.360;2023-12-04T05:20:42;54.30;;;20.33;;
74541;SDS011;63015;45.378;20.360;2023-12-04T05:22:42;55.03;;;20.50;;
74541;SDS011;63015;45.378;20.360;2023-12-04T05:24:43;59.03;;;20.20;;
74541;SDS011;63015;45.378;20.360;2023-12-04T05:26:43;57.50;;;21.40;;
74541;SDS011;63015;45.378;20.360;2023-12-04T05:28:44;49.47;;;18.85;;
74541;SDS011;63015;45.378;20.360;2023-12-04T05:30:45;45.10;;;18.65;;
74541;SDS011;63015;45.378;20.360;2023-12-04T05:32:45;47.80;;;18.35;;
74541;SDS011;63015;45.378;20.360;2023-12-04T05:34:46;49.65;;;19.40;;
74541;SDS011;63015;45.378;20.360;2023-12-04T05:36:46;54.28;;;22.20;;
74541;SDS011;63015;45.378;20.360;2023-12-04T05:38:47;51.53;;;21.45;;
74541;SDS011;63015;45.378;20.360;2023-12-04T05:40:47;69.13;;;23.77;;
74541;SDS011;63015;45.378;20.360;2023-12-04T05:42:48;94.13;;;30.08;;
74541;SDS011;63015;45.378;20.360;2023-12-04T05:44:49;98.53;;;31.40;;
74541;SDS011;63015;45.378;20.360;2023-12-04T05:46:50;102.68;;;31.48;;
74541;SDS011;63015;45.378;20.360;2023-12-04T05:48:50;107.88;;;32.70;;
74541;SDS011;63015;45.378;20.360;2023-12-04T05:50:51;96.82;;;30.58;;
74541;SDS011;63015;45.378;20.360;2023-12-04T05:52:51;83.45;;;30.05;;
74541;SDS011;63015;45.378;20.360;2023-12-04T05:54:52;77.07;;;26.75;;
74541;SDS011;63015;45.378;20.360;2023-12-04T05:56:52;68.43;;;24.90;;
74541;SDS011;63015;45.378;20.360;2023-12-04T05:58:53;76.32;;;24.25;;
74541;SDS011;63015;45.378;20.360;2023-12-04T06:00:54;78.47;;;25.58;;
74541;SDS011;63015;45.378;20.360;2023-12-04T06:02:54;79.63;;;25.95;;
74541;SDS011;63015;45.378;20.360;2023-12-04T06:04:55;75.22;;;25.83;;
74541;SDS011;63015;45.378;20.360;2023-12-04T06:06:56;95.95;;;31.35;;
74541;SDS011;63015;45.378;20.360;2023-12-04T06:08:56;95.95;;;30.80;;
74541;SDS011;63015;45.378;20.360;2023-12-04T06:10:57;100.82;;;32.45;;
74541;SDS011;63015;45.378;20.360;2023-12-04T06:12:58;102.75;;;30.35;;
74541;SDS011;63015;45.378;20.360;2023-12-04T06:14:58;88.13;;;27.95;;
74541;SDS011;63015;45.378;20.360;2023-12-04T06:16:59;76.82;;;27.77;;
74541;SDS011;63015;45.378;20.360;2023-12-04T06:18:59;77.00;;;27.65;;
74541;SDS011;63015;45.378;20.360;2023-12-04T06:21:00;71.45;;;25.98;;
74541;SDS011;63015;45.378;20.360;2023-12-04T06:23:00;67.07;;;25.55;;
74541;SDS011;63015;45.378;20.360;2023-12-04T06:25:01;79.65;;;27.98;;
74541;SDS011;63015;45.378;20.360;2023-12-04T06:27:02;85.22;;;29.48;;
74541;SDS011;63015;45.378;20.360;2023-12-04T06:29:05;84.65;;;29.75;;
74541;SDS011;63015;45.378;20.360;2023-12-04T06:31:06;85.63;;;29.20;;
74541;SDS011;63015;45.378;20.360;2023-12-04T06:33:07;79.03;;;28.33;;
74541;SDS011;63015;45.378;20.360;2023-12-04T06:35:09;85.45;;;29.00;;
74541;SDS011;63015;45.378;20.360;2023-12-04T06:37:11;89.30;;;29.10;;
74541;SDS011;63015;45.378;20.360;2023-12-04T06:39:13;78.75;;;27.85;;
74541;SDS011;63015;45.378;20.360;2023-12-04T06:41:15;69.50;;;26.17;;
74541;SDS011;63015;45.378;20.360;2023-12-04T06:43:17;75.30;;;24.55;;
74541;SDS011;63015;45.378;20.360;2023-12-04T06:45:18;72.68;;;26.42;;
74541;SDS011;63015;45.378;20.360;2023-12-04T06:47:22;62.00;;;21.77;;
74541;SDS011;63015;45.378;20.360;2023-12-04T06:51:24;60.15;;;21.13;;
74541;SDS011;63015;45.378;20.360;2023-12-04T06:53:25;59.85;;;24.30;;
74541;SDS011;63015;45.378;20.360;2023-12-04T06:55:26;58.45;;;25.50;;
74541;SDS011;63015;45.378;20.360;2023-12-04T06:57:26;68.40;;;27.52;;
74541;SDS011;63015;45.378;20.360;2023-12-04T06:59:27;56.08;;;25.58;;
74541;SDS011;63015;45.378;20.360;2023-12-04T07:01:28;47.67;;;21.15;;
74541;SDS011;63015;45.378;20.360;2023-12-04T07:03:28;59.08;;;26.52;;
74541;SDS011;63015;45.378;20.360;2023-12-04T07:05:29;66.53;;;26.80;;
74541;SDS011;63015;45.378;20.360;2023-12-04T07:07:29;62.83;;;27.35;;
74541;SDS011;63015;45.378;20.360;2023-12-04T07:09:31;69.18;;;31.30;;
74541;SDS011;63015;45.378;20.360;2023-12-04T07:11:32;70.32;;;30.08;;
74541;SDS011;63015;45.378;20.360;2023-12-04T07:13:32;85.38;;;33.53;;
74541;SDS011;63015;45.378;20.360;2023-12-04T07:15:33;70.45;;;29.73;;
74541;SDS011;63015;45.378;20.360;2023-12-04T07:17:34;68.07;;;29.50;;
74541;SDS011;63015;45.378;20.360;2023-12-04T07:19:36;67.07;;;28.90;;
74541;SDS011;63015;45.378;20.360;2023-12-04T07:21:36;84.05;;;33.78;;
74541;SDS011;63015;45.378;20.360;2023-12-04T07:23:37;76.75;;;34.53;;
74541;SDS011;63015;45.378;20.360;2023-12-04T07:25:38;73.63;;;34.90;;
74541;SDS011;63015;45.378;20.360;2023-12-04T07:27:40;80.65;;;36.35;;
74541;SDS011;63015;45.378;20.360;2023-12-04T07:29:41;83.72;;;35.75;;
74541;SDS011;63015;45.378;20.360;2023-12-04T07:31:41;89.32;;;36.65;;
74541;SDS011;63015;45.378;20.360;2023-12-04T07:33:42;81.28;;;33.60;;
74541;SDS011;63015;45.378;20.360;2023-12-04T07:35:43;73.43;;;30.73;;
74541;SDS011;63015;45.378;20.360;2023-12-04T07:37:43;84.78;;;32.60;;
74541;SDS011;63015;45.378;20.360;2023-12-04T07:39:44;82.05;;;33.30;;
74541;SDS011;63015;45.378;20.360;2023-12-04T07:41:46;71.55;;;30.05;;
74541;SDS011;63015;45.378;20.360;2023-12-04T07:43:46;69.53;;;30.00;;
74541;SDS011;63015;45.378;20.360;2023-12-04T07:45:47;67.10;;;26.60;;
74541;SDS011;63015;45.378;20.360;2023-12-04T07:47:48;67.38;;;28.27;;
74541;SDS011;63015;45.378;20.360;2023-12-04T07:49:48;55.40;;;24.17;;
74541;SDS011;63015;45.378;20.360;2023-12-04T07:51:49;42.63;;;18.63;;
74541;SDS011;63015;45.378;20.360;2023-12-04T07:53:49;41.33;;;18.25;;
74541;SDS011;63015;45.378;20.360;2023-12-04T07:55:50;44.15;;;19.55;;
74541;SDS011;63015;45.378;20.360;2023-12-04T07:57:51;44.55;;;18.95;;
74541;SDS011;63015;45.378;20.360;2023-12-04T07:59:51;57.63;;;23.25;;
74541;SDS011;63015;45.378;20.360;2023-12-04T08:01:53;43.00;;;18.73;;
74541;SDS011;63015;45.378;20.360;2023-12-04T08:03:54;45.08;;;16.95;;
74541;SDS011;63015;45.378;20.360;2023-12-04T08:05:55;64.60;;;24.55;;
74541;SDS011;63015;45.378;20.360;2023-12-04T08:07:55;69.25;;;26.10;;
74541;SDS011;63015;45.378;20.360;2023-12-04T08:09:56;50.17;;;17.65;;
74541;SDS011;63015;45.378;20.360;2023-12-04T08:11:57;36.97;;;14.93;;
74541;SDS011;63015;45.378;20.360;2023-12-04T08:13:57;61.15;;;20.08;;
74541;SDS011;63015;45.378;20.360;2023-12-04T08:15:58;39.55;;;14.60;;
74541;SDS011;63015;45.378;20.360;2023-12-04T08:17:59;31.02;;;12.52;;
74541;SDS011;63015;45.378;20.360;2023-12-04T08:20:00;53.92;;;19.60;;
74541;SDS011;63015;45.378;20.360;2023-12-04T08:22:01;35.28;;;13.32;;
74541;SDS011;63015;45.378;20.360;2023-12-04T08:24:02;33.22;;;13.75;;
74541;SDS011;63015;45.378;20.360;2023-12-04T08:26:02;27.55;;;11.27;;
74541;SDS011;63015;45.378;20.360;2023-12-04T08:28:04;18.85;;;8.25;;
74541;SDS011;63015;45.378;20.360;2023-12-04T08:30:06;14.90;;;7.18;;
74541;SDS011;63015;45.378;20.360;2023-12-04T08:32:07;33.42;;;13.57;;
74541;SDS011;63015;45.378;20.360;2023-12-04T08:34:07;37.58;;;13.43;;
74541;SDS011;63015;45.378;20.360;2023-12-04T08:36:08;28.83;;;10.25;;
74541;SDS011;63015;45.378;20.360;2023-12-04T08:38:10;43.00;;;14.93;;
74541;SDS011;63015;45.378;20.360;2023-12-04T08:40:11;32.63;;;10.93;;
74541;SDS011;63015;45.378;20.360;2023-12-04T08:42:12;22.42;;;10.18;;
74541;SDS011;63015;45.378;20.360;2023-12-04T08:44:13;18.48;;;8.30;;
74541;SDS011;63015;45.378;20.360;2023-12-04T08:46:14;28.00;;;11.00;;
74541;SDS011;63015;45.378;20.360;2023-12-04T08:48:14;27.15;;;11.35;;
74541;SDS011;63015;45.378;20.360;2023-12-04T08:50:15;23.20;;;9.82;;
74541;SDS011;63015;45.378;20.360;2023-12-04T08:52:16;24.40;;;10.60;;
74541;SDS011;63015;45.378;20.360;2023-12-04T08:54:17;33.33;;;13.25;;
74541;SDS011;63015;45.378;20.360;2023-12-04T08:56:18;17.20;;;7.78;;
74541;SDS011;63015;45.378;20.360;2023-12-04T08:58:18;46.60;;;16.83;;
74541;SDS011;63015;45.378;20.360;2023-12-04T09:00:19;12.68;;;4.45;;
74541;SDS011;63015;45.378;20.360;2023-12-04T09:02:20;53.42;;;19.52;;
74541;SDS011;63015;45.378;20.360;2023-12-04T09:04:21;40.45;;;14.75;;
74541;SDS011;63015;45.378;20.360;2023-12-04T09:06:21;33.05;;;13.80;;
74541;SDS011;63015;45.378;20.360;2023-12-04T09:08:22;17.25;;;8.05;;
74541;SDS011;63015;45.378;20.360;2023-12-04T09:10:25;15.70;;;7.50;;
74541;SDS011;63015;45.378;20.360;2023-12-04T09:12:26;20.23;;;8.48;;
74541;SDS011;63015;45.378;20.360;2023-12-04T09:14:27;21.50;;;9.13;;
74541;SDS011;63015;45.378;20.360;2023-12-04T09:16:28;34.35;;;13.13;;
74541;SDS011;63015;45.378;20.360;2023-12-04T09:18:28;21.02;;;8.45;;
74541;SDS011;63015;45.378;20.360;2023-12-04T09:20:29;18.98;;;9.45;;
74541;SDS011;63015;45.378;20.360;2023-12-04T09:22:29;21.73;;;8.77;;
74541;SDS011;63015;45.378;20.360;2023-12-04T09:24:30;22.23;;;9.60;;
74541;SDS011;63015;45.378;20.360;2023-12-04T09:26:31;21.30;;;10.25;;
74541;SDS011;63015;45.378;20.360;2023-12-04T09:28:31;23.55;;;9.13;;
74541;SDS011;63015;45.378;20.360;2023-12-04T09:30:33;30.48;;;11.23;;
74541;SDS011;63015;45.378;20.360;2023-12-04T09:32:35;30.10;;;10.68;;
74541;SDS011;63015;45.378;20.360;2023-12-04T09:34:36;14.27;;;6.90;;
74541;SDS011;63015;45.378;20.360;2023-12-04T09:36:37;33.55;;;11.95;;
74541;SDS011;63015;45.378;20.360;2023-12-04T09:38:38;19.30;;;9.10;;
74541;SDS011;63015;45.378;20.360;2023-12-04T09:40:39;16.52;;;6.65;;
74541;SDS011;63015;45.378;20.360;2023-12-04T09:42:39;20.50;;;9.25;;
74541;SDS011;63015;45.378;20.360;2023-12-04T09:44:40;22.08;;;9.85;;
74541;SDS011;63015;45.378;20.360;2023-12-04T09:46:41;19.75;;;8.60;;
74541;SDS011;63015;45.378;20.360;2023-12-04T09:48:42;11.27;;;4.75;;
74541;SDS011;63015;45.378;20.360;2023-12-04T09:50:43;18.95;;;8.65;;
74541;SDS011;63015;45.378;20.360;2023-12-04T09:52:48;24.70;;;10.27;;
74541;SDS011;63015;45.378;20.360;2023-12-04T09:54:50;21.92;;;9.15;;
74541;SDS011;63015;45.378;20.360;2023-12-04T09:56:51;16.25;;;7.95;;
74541;SDS011;63015;45.378;20.360;2023-12-04T09:58:52;20.27;;;9.88;;
74541;SDS011;63015;45.378;20.360;2023-12-04T10:00:59;26.58;;;10.95;;
74541;SDS011;63015;45.378;20.360;2023-12-04T10:03:01;30.80;;;12.55;;
74541;SDS011;63015;45.378;20.360;2023-12-04T10:05:02;25.58;;;10.77;;
74541;SDS011;63015;45.378;20.360;2023-12-04T10:07:06;28.08;;;12.27;;
74541;SDS011;63015;45.378;20.360;2023-12-04T10:09:06;20.50;;;10.57;;
74541;SDS011;63015;45.378;20.360;2023-12-04T10:11:14;20.67;;;9.50;;
74541;SDS011;63015;45.378;20.360;2023-12-04T10:15:15;18.38;;;9.52;;
74541;SDS011;63015;45.378;20.360;2023-12-04T10:17:16;22.83;;;9.60;;
74541;SDS011;63015;45.378;20.360;2023-12-04T10:19:27;18.35;;;9.20;;
74541;SDS011;63015;45.378;20.360;2023-12-04T10:21:32;15.57;;;6.43;;
74541;SDS011;63015;45.378;20.360;2023-12-04T10:23:37;15.95;;;8.05;;
74541;SDS011;63015;45.378;20.360;2023-12-04T10:25:39;19.60;;;8.23;;
74541;SDS011;63015;45.378;20.360;2023-12-04T10:27:40;20.92;;;10.13;;
74541;SDS011;63015;45.378;20.360;2023-12-04T10:29:48;22.42;;;10.02;;
74541;SDS011;63015;45.378;20.360;2023-12-04T10:31:50;26.83;;;12.88;;
74541;SDS011;63015;45.378;20.360;2023-12-04T10:33:52;30.40;;;16.35;;
74541;SDS011;63015;45.378;20.360;2023-12-04T10:35:54;24.55;;;11.45;;
74541;SDS011;63015;45.378;20.360;2023-12-04T10:37:55;30.88;;;12.68;;
74541;SDS011;63015;45.378;20.360;2023-12-04T10:39:56;27.92;;;13.50;;
74541;SDS011;63015;45.378;20.360;2023-12-04T10:42:03;32.33;;;16.95;;
74541;SDS011;63015;45.378;20.360;2023-12-04T10:44:04;20.42;;;7.95;;
74541;SDS011;63015;45.378;20.360;2023-12-04T10:46:04;17.48;;;8.05;;
74541;SDS011;63015;45.378;20.360;2023-12-04T10:48:05;22.40;;;9.95;;
74541;SDS011;63015;45.378;20.360;2023-12-04T10:50:06;22.60;;;10.27;;
74541;SDS011;63015;45.378;20.360;2023-12-04T10:52:07;20.73;;;10.68;;
74541;SDS011;63015;45.378;20.360;2023-12-04T10:54:09;21.52;;;10.65;;
74541;SDS011;63015;45.378;20.360;2023-12-04T10:58:25;21.55;;;10.35;;
74541;SDS011;63015;45.378;20.360;2023-12-04T11:00:27;28.05;;;12.23;;
74541;SDS011;63015;45.378;20.360;2023-12-04T11:02:32;29.17;;;10.50;;
74541;SDS011;63015;45.378;20.360;2023-12-04T11:04:34;32.95;;;14.48;;
74541;SDS011;63015;45.378;20.360;2023-12-04T11:06:37;16.08;;;7.10;;
74541;SDS011;63015;45.378;20.360;2023-12-04T11:08:41;18.38;;;7.10;;
74541;SDS011;63015;45.378;20.360;2023-12-04T11:10:47;21.20;;;9.43;;
74541;SDS011;63015;45.378;20.360;2023-12-04T11:13:02;22.02;;;10.13;;
74541;SDS011;63015;45.378;20.360;2023-12-04T11:15:08;27.50;;;11.18;;
74541;SDS011;63015;45.378;20.360;2023-12-04T11:17:14;26.40;;;11.77;;
74541;SDS011;63015;45.378;20.360;2023-12-04T11:21:53;23.08;;;10.63;;
74541;SDS011;63015;45.378;20.360;2023-12-04T11:23:58;19.90;;;9.63;;
74541;SDS011;63015;45.378;20.360;2023-12-04T11:25:59;17.23;;;8.65;;
74541;SDS011;63015;45.378;20.360;2023-12-04T11:28:01;21.05;;;9.18;;
74541;SDS011;63015;45.378;20.360;2023-12-04T11:30:02;17.55;;;8.63;;
74541;SDS011;63015;45.378;20.360;2023-12-04T11:32:07;14.35;;;7.65;;
74541;SDS011;63015;45.378;20.360;2023-12-04T11:34:08;14.98;;;8.52;;
74541;SDS011;63015;45.378;20.360;2023-12-04T11:36:13;15.10;;;7.25;;
74541;SDS011;63015;45.378;20.360;2023-12-04T11:38:15;19.83;;;8.13;;
74541;SDS011;63015;45.378;20.360;2023-12-04T11:40:17;14.18;;;6.95;;
74541;SDS011;63015;45.378;20.360;2023-12-04T11:42:24;16.80;;;9.45;;
74541;SDS011;63015;45.378;20.360;2023-12-04T11:44:25;18.00;;;8.90;;
74541;SDS011;63015;45.378;20.360;2023-12-04T11:46:27;17.83;;;8.23;;
74541;SDS011;63015;45.378;20.360;2023-12-04T11:48:28;19.10;;;9.50;;
74541;SDS011;63015;45.378;20.360;2023-12-04T11:50:29;19.30;;;9.40;;
74541;SDS011;63015;45.378;20.360;2023-12-04T11:52:33;18.35;;;9.13;;
74541;SDS011;63015;45.378;20.360;2023-12-04T11:54:58;19.88;;;9.27;;